createdAt,value
2022-10-15T00:01:52.823Z,29.10
2022-10-15T00:04:21.753Z,33.30
2022-10-15T00:06:49.921Z,34.80
2022-10-15T00:09:19.447Z,33.00
2022-10-15T00:11:47.252Z,31.50
2022-10-15T00:14:15.700Z,32.80
2022-10-15T00:16:45.795Z,31.20
2022-10-15T00:19:14.036Z,29.20
2022-10-15T00:21:41.952Z,31.40
2022-10-15T00:24:11.370Z,31.40
2022-10-15T00:26:42.306Z,29.80
2022-10-15T00:29:10.437Z,25.50
2022-10-15T00:31:38.484Z,26.40
2022-10-15T00:34:08.243Z,25.80
2022-10-15T00:36:37.886Z,27.10
2022-10-15T00:39:07.250Z,28.20
2022-10-15T00:41:38.364Z,26.90
2022-10-15T00:44:21.901Z,28.00
2022-10-15T00:46:57.936Z,27.50
2022-10-15T00:49:35.864Z,27.60
2022-10-15T00:52:11.770Z,32.00
2022-10-15T00:54:51.332Z,29.90
2022-10-15T00:57:21.471Z,26.80
2022-10-15T00:59:54.349Z,28.50
2022-10-15T01:02:27.855Z,27.50
2022-10-15T01:05:03.533Z,26.70
2022-10-15T01:07:31.741Z,27.30
2022-10-15T01:10:02.229Z,29.00
2022-10-15T01:12:54.482Z,27.90
2022-10-15T01:15:54.867Z,25.30
2022-10-15T01:18:31.748Z,23.60
2022-10-15T01:21:10.288Z,27.20
2022-10-15T01:24:03.581Z,27.80
2022-10-15T01:26:50.415Z,32.10
2022-10-15T01:29:54.007Z,29.60
2022-10-15T01:32:35.245Z,30.00
2022-10-15T01:35:30.653Z,27.50
2022-10-15T01:38:26.979Z,30.40
2022-10-15T01:41:01.496Z,28.80
2022-10-15T01:43:58.648Z,30.20
2022-10-15T01:46:48.081Z,30.40
2022-10-15T01:49:29.303Z,25.00
2022-10-15T01:52:00.958Z,30.50
2022-10-15T01:54:31.313Z,29.50
2022-10-15T01:57:00.270Z,31.20
2022-10-15T01:59:32.596Z,26.90
2022-10-15T02:04:32.454Z,30.30
2022-10-15T02:07:36.790Z,32.90
2022-10-15T02:10:22.217Z,31.00
2022-10-15T02:13:05.716Z,31.10
2022-10-15T02:15:47.723Z,29.80
2022-10-15T02:18:28.690Z,25.80
2022-10-15T02:23:56.611Z,27.80
2022-10-15T02:26:30.494Z,29.30
2022-10-15T02:31:36.516Z,27.10
2022-10-15T02:34:13.996Z,30.80
2022-10-15T02:36:43.914Z,27.50
2022-10-15T02:39:16.206Z,29.20
2022-10-15T02:41:45.233Z,28.10
2022-10-15T02:44:17.450Z,29.40
2022-10-15T02:46:47.223Z,27.80
2022-10-15T02:49:16.076Z,30.40
2022-10-15T02:51:44.476Z,27.90
2022-10-15T02:54:17.579Z,31.70
2022-10-15T02:56:51.114Z,29.70
2022-10-15T02:59:20.534Z,32.40
2022-10-15T03:01:48.501Z,32.70
2022-10-15T03:04:17.235Z,32.80
2022-10-15T03:06:45.999Z,29.70
2022-10-15T03:09:15.705Z,26.80
2022-10-15T03:11:44.693Z,32.60
2022-10-15T03:14:12.739Z,29.50
2022-10-15T03:16:40.819Z,27.50
2022-10-15T03:19:11.946Z,32.90
2022-10-15T03:21:43.966Z,31.50
2022-10-15T03:24:14.262Z,31.50
2022-10-15T03:26:44.634Z,28.20
2022-10-15T03:29:12.592Z,33.40
2022-10-15T03:31:47.866Z,30.20
2022-10-15T03:34:16.987Z,36.30
2022-10-15T03:36:47.440Z,32.30
2022-10-15T03:39:16.731Z,32.40
2022-10-15T03:41:45.776Z,29.10
2022-10-15T03:44:18.327Z,32.70
2022-10-15T03:46:48.167Z,32.80
2022-10-15T03:49:18.536Z,35.10
2022-10-15T03:51:46.874Z,31.10
2022-10-15T03:54:17.710Z,32.90
2022-10-15T03:56:50.048Z,30.20
2022-10-15T03:59:30.051Z,30.30
2022-10-15T04:02:01.653Z,28.90
2022-10-15T04:04:33.805Z,28.90
2022-10-15T04:07:02.095Z,30.70
2022-10-15T04:09:32.030Z,31.00
2022-10-15T04:12:19.932Z,27.90
2022-10-15T04:14:49.594Z,27.90
2022-10-15T04:17:18.948Z,29.00
2022-10-15T04:19:47.044Z,29.30
2022-10-15T04:22:17.372Z,31.10
2022-10-15T04:24:54.464Z,27.60
2022-10-15T04:27:29.631Z,29.70
2022-10-15T04:30:11.249Z,30.70
2022-10-15T04:32:43.747Z,28.20
2022-10-15T04:35:12.581Z,27.80
2022-10-15T04:37:50.585Z,28.80
2022-10-15T04:40:18.934Z,27.80
2022-10-15T04:42:48.135Z,27.60
2022-10-15T04:45:16.410Z,27.00
2022-10-15T04:47:47.071Z,25.80
2022-10-15T04:50:17.308Z,25.80
2022-10-15T04:53:04.852Z,27.10
2022-10-15T04:55:36.236Z,28.60
2022-10-15T04:58:04.514Z,27.00
2022-10-15T05:00:32.825Z,27.60
2022-10-15T05:03:20.580Z,28.50
2022-10-15T05:06:00.725Z,29.90
2022-10-15T05:08:30.964Z,28.80
2022-10-15T05:11:20.162Z,27.30
2022-10-15T05:13:51.631Z,25.90
2022-10-15T05:16:23.801Z,25.70
2022-10-15T05:18:55.946Z,26.90
2022-10-15T05:21:24.308Z,29.20
2022-10-15T05:23:55.762Z,27.60
2022-10-15T05:27:02.941Z,31.70
2022-10-15T05:29:37.258Z,31.00
2022-10-15T05:32:07.777Z,32.70
2022-10-15T05:34:47.262Z,34.50
2022-10-15T05:37:17.176Z,33.90
2022-10-15T05:39:45.487Z,30.00
2022-10-15T05:42:14.026Z,29.60
2022-10-15T05:44:53.666Z,30.30
2022-10-15T05:47:26.995Z,28.40
2022-10-15T05:50:12.056Z,29.60
2022-10-15T05:52:46.806Z,29.00
2022-10-15T05:55:41.092Z,27.20
2022-10-15T05:58:09.392Z,30.10
2022-10-15T06:00:40.063Z,30.10
2022-10-15T06:03:12.388Z,30.80
2022-10-15T06:05:50.940Z,34.10
2022-10-15T06:08:20.394Z,27.00
2022-10-15T06:10:49.164Z,29.40
2022-10-15T06:13:18.043Z,35.30
2022-10-15T06:15:46.851Z,30.00
2022-10-15T06:18:16.662Z,25.60
2022-10-15T06:20:51.082Z,26.10
2022-10-15T06:26:15.583Z,26.60
2022-10-15T06:28:55.646Z,28.70
2022-10-15T06:31:24.575Z,33.60
2022-10-15T06:33:54.849Z,28.70
2022-10-15T06:36:26.607Z,28.00
2022-10-15T06:38:55.134Z,30.80
2022-10-15T06:41:23.052Z,31.60
2022-10-15T06:46:23.416Z,30.60
2022-10-15T06:48:52.150Z,31.60
2022-10-15T06:51:20.469Z,27.70
2022-10-15T06:53:51.449Z,30.60
2022-10-15T06:56:20.606Z,36.10
2022-10-15T06:58:48.931Z,31.70
2022-10-15T07:01:17.466Z,36.40
2022-10-15T07:03:49.326Z,38.20
2022-10-15T07:06:18.550Z,29.80
2022-10-15T07:08:47.013Z,34.50
2022-10-15T07:11:20.417Z,34.30
2022-10-15T07:13:49.383Z,33.30
2022-10-15T07:16:23.069Z,30.90
2022-10-15T07:18:52.643Z,36.90
2022-10-15T07:21:21.281Z,33.60
2022-10-15T07:23:52.199Z,36.50
2022-10-15T07:26:38.324Z,36.00
2022-10-15T07:29:15.697Z,42.00
2022-10-15T07:34:15.055Z,38.20
2022-10-15T07:36:44.564Z,43.00
2022-10-15T07:39:20.950Z,35.30
2022-10-15T07:41:48.964Z,39.30
2022-10-15T07:44:24.099Z,43.40
2022-10-15T07:46:55.423Z,35.90
2022-10-15T07:49:25.431Z,29.60
2022-10-15T07:51:53.512Z,31.00
2022-10-15T07:54:27.465Z,30.00
2022-10-15T07:56:55.555Z,28.70
2022-10-15T07:59:24.535Z,32.10
2022-10-15T08:01:52.824Z,28.00
2022-10-15T08:04:26.635Z,31.30
2022-10-15T08:09:26.727Z,25.60
2022-10-15T08:11:57.863Z,27.90
2022-10-15T08:14:28.742Z,26.20
2022-10-15T08:17:00.985Z,28.70
2022-10-15T08:19:31.840Z,24.30
2022-10-15T08:22:00.376Z,24.90
2022-10-15T08:24:31.796Z,23.30
2022-10-15T08:27:10.849Z,23.20
2022-10-15T08:29:39.216Z,19.40
2022-10-15T08:32:08.065Z,20.30
2022-10-15T08:37:27.210Z,18.80
2022-10-15T08:39:56.524Z,21.10
2022-10-15T08:42:51.630Z,20.80
2022-10-15T08:45:53.209Z,27.60
2022-10-15T08:48:32.767Z,30.10
2022-10-15T08:51:15.513Z,27.00
2022-10-15T08:54:04.956Z,30.30
2022-10-15T08:56:44.903Z,33.60
2022-10-15T08:59:59.417Z,23.60
2022-10-15T09:03:10.373Z,21.40
2022-10-15T09:05:59.326Z,17.20
2022-10-15T09:11:19.792Z,12.70
2022-10-15T09:13:49.597Z,13.20
2022-10-15T09:16:32.733Z,11.40
2022-10-15T09:19:11.875Z,10.20
2022-10-15T09:21:47.039Z,10.50
2022-10-15T09:24:33.619Z,10.20
2022-10-15T09:27:23.573Z,7.50
2022-10-15T09:30:21.829Z,7.90
2022-10-15T09:33:16.712Z,6.20
2022-10-15T09:35:56.885Z,6.10
2022-10-15T09:39:01.216Z,6.20
2022-10-15T09:44:17.430Z,3.80
2022-10-15T09:46:53.028Z,4.00
2022-10-15T09:49:25.011Z,3.40
2022-10-15T09:52:16.620Z,3.10
2022-10-15T09:55:05.584Z,3.00
2022-10-15T09:57:40.088Z,3.30
2022-10-15T10:00:13.964Z,4.90
2022-10-15T10:05:34.886Z,3.20
2022-10-15T10:08:31.826Z,3.00
2022-10-15T10:11:21.200Z,2.80
2022-10-15T10:14:30.757Z,3.10
2022-10-15T10:17:42.475Z,3.10
2022-10-15T10:20:33.418Z,5.90
2022-10-15T10:23:24.123Z,3.40
2022-10-15T10:25:52.260Z,3.50
2022-10-15T10:28:43.433Z,3.70
2022-10-15T10:31:15.352Z,4.90
2022-10-15T10:33:51.081Z,5.00
2022-10-15T10:36:31.204Z,5.40
2022-10-15T10:39:15.962Z,6.00
2022-10-15T10:42:06.290Z,5.50
2022-10-15T10:44:40.757Z,5.80
2022-10-15T10:47:08.639Z,5.00
2022-10-15T10:49:39.775Z,5.50
2022-10-15T10:58:45.319Z,5.00
2022-10-15T11:01:15.922Z,6.00
2022-10-15T11:03:52.465Z,7.70
2022-10-15T11:06:51.021Z,9.00
2022-10-15T11:09:51.101Z,9.80
2022-10-15T11:13:01.772Z,12.50
2022-10-15T11:15:54.566Z,16.00
2022-10-15T11:18:27.427Z,14.70
2022-10-15T11:21:34.680Z,16.20
2022-10-15T11:24:48.334Z,22.80
2022-10-15T11:27:42.528Z,16.00
2022-10-15T11:30:34.379Z,15.60
2022-10-15T11:33:33.961Z,18.00
2022-10-15T11:36:31.025Z,18.70
2022-10-15T11:39:20.345Z,16.50
2022-10-15T11:42:07.011Z,21.90
2022-10-15T11:45:34.152Z,21.20
2022-10-15T11:48:23.439Z,19.40
2022-10-15T11:50:57.733Z,25.90
2022-10-15T11:53:50.779Z,20.70
2022-10-15T11:56:32.623Z,26.50
2022-10-15T11:59:15.816Z,20.80
2022-10-15T12:01:49.693Z,20.80
2022-10-15T12:04:32.543Z,24.10
2022-10-15T12:07:04.757Z,17.30
2022-10-15T12:09:39.438Z,22.80
2022-10-15T12:12:15.949Z,20.20
2022-10-15T12:15:12.523Z,18.00
2022-10-15T12:17:50.673Z,18.30
2022-10-15T12:20:22.296Z,18.70
2022-10-15T12:23:03.333Z,17.80
2022-10-15T12:25:33.976Z,18.80
2022-10-15T12:28:12.180Z,22.40
2022-10-15T12:30:43.182Z,16.80
2022-10-15T12:33:32.979Z,16.70
2022-10-15T12:36:22.079Z,17.50
2022-10-15T12:39:12.804Z,16.90
2022-10-15T12:41:50.641Z,18.30
2022-10-15T12:44:27.441Z,19.30
2022-10-15T12:46:56.424Z,18.20
2022-10-15T12:49:35.137Z,20.30
2022-10-15T12:52:42.352Z,19.00
2022-10-15T12:55:40.139Z,18.50
2022-10-15T12:58:55.099Z,19.30
2022-10-15T13:01:23.117Z,20.80
2022-10-15T13:03:56.314Z,18.90
2022-10-15T13:06:51.411Z,19.70
2022-10-15T13:09:27.520Z,20.20
2022-10-15T13:12:17.708Z,20.00
2022-10-15T13:15:04.419Z,22.10
2022-10-15T13:17:32.756Z,29.30
2022-10-15T13:20:24.379Z,28.40
2022-10-15T13:23:18.835Z,26.00
2022-10-15T13:26:14.414Z,22.70
2022-10-15T13:28:44.208Z,20.30
2022-10-15T13:31:46.150Z,21.10
2022-10-15T13:34:27.628Z,19.00
2022-10-15T13:36:59.620Z,18.80
2022-10-15T13:42:17.456Z,18.40
2022-10-15T13:45:04.566Z,21.40
2022-10-15T13:47:42.149Z,17.40
2022-10-15T13:50:34.865Z,17.80
2022-10-15T13:53:22.889Z,18.60
2022-10-15T13:55:53.388Z,19.30
2022-10-15T13:58:33.345Z,25.70
2022-10-15T14:01:33.706Z,22.90
2022-10-15T14:04:03.489Z,21.90
2022-10-15T14:06:57.262Z,17.50
2022-10-15T14:12:00.705Z,16.10
2022-10-15T14:14:37.725Z,14.70
2022-10-15T14:17:09.447Z,13.20
2022-10-15T14:19:39.612Z,12.40
2022-10-15T14:22:16.889Z,13.60
2022-10-15T14:24:48.611Z,13.60
2022-10-15T14:27:24.081Z,15.40
2022-10-15T14:29:59.033Z,23.50
2022-10-15T14:32:48.591Z,31.60
2022-10-15T14:35:38.014Z,38.00
2022-10-15T14:38:16.328Z,44.40
2022-10-15T14:41:04.843Z,48.10
2022-10-15T14:43:38.161Z,45.20
2022-10-15T14:46:09.055Z,39.50
2022-10-15T14:48:38.879Z,29.70
2022-10-15T14:51:12.627Z,24.60
2022-10-15T14:53:48.280Z,20.30
2022-10-15T14:56:23.177Z,21.40
2022-10-15T14:59:01.757Z,21.40
2022-10-15T15:01:33.994Z,18.50
2022-10-15T15:04:02.827Z,21.40
2022-10-15T15:06:35.377Z,18.80
2022-10-15T15:09:07.292Z,18.70
2022-10-15T15:11:36.863Z,16.50
2022-10-15T15:14:08.968Z,16.20
2022-10-15T15:16:38.917Z,15.50
2022-10-15T15:19:09.268Z,18.70
2022-10-15T15:21:37.236Z,21.80
2022-10-15T15:24:06.326Z,21.40
2022-10-15T15:26:35.460Z,16.90
2022-10-15T15:29:03.535Z,13.70
2022-10-15T15:31:33.938Z,10.70
2022-10-15T15:34:02.504Z,12.40
2022-10-15T15:36:30.606Z,11.60
2022-10-15T15:39:00.098Z,16.90
2022-10-15T15:41:29.728Z,13.90
2022-10-15T15:43:59.958Z,13.70
2022-10-15T15:46:33.309Z,14.10
2022-10-15T15:49:01.481Z,12.90
2022-10-15T15:51:33.989Z,14.50
2022-10-15T15:54:04.734Z,11.00
2022-10-15T15:56:35.149Z,11.60
2022-10-15T15:59:05.894Z,15.00
2022-10-15T16:01:36.511Z,14.70
2022-10-15T16:04:09.860Z,13.40
2022-10-15T16:06:42.659Z,14.80
2022-10-15T16:11:40.249Z,13.20
2022-10-15T16:14:09.497Z,15.00
2022-10-15T16:16:37.828Z,9.90
2022-10-15T16:19:06.401Z,10.70
2022-10-15T16:21:34.741Z,10.70
2022-10-15T16:24:06.676Z,9.70
2022-10-15T16:26:35.712Z,9.10
2022-10-15T16:29:03.673Z,11.00
2022-10-15T16:31:37.059Z,11.60
2022-10-15T16:34:05.306Z,10.70
2022-10-15T16:36:34.383Z,9.20
2022-10-15T16:39:02.603Z,7.60
2022-10-15T16:41:33.929Z,6.90
2022-10-15T16:44:04.705Z,7.00
2022-10-15T16:46:33.910Z,7.10
2022-10-15T16:49:02.334Z,8.40
2022-10-15T16:54:03.705Z,9.10
2022-10-15T16:56:32.429Z,11.90
2022-10-15T16:59:03.355Z,11.10
2022-10-15T17:01:31.761Z,13.70
2022-10-15T17:04:00.857Z,9.30
2022-10-15T17:06:31.295Z,10.00
2022-10-15T17:09:03.888Z,32.60
2022-10-15T17:11:34.989Z,12.10
2022-10-15T17:14:07.826Z,12.60
2022-10-15T17:16:43.925Z,12.90
2022-10-15T17:19:19.904Z,13.90
2022-10-15T17:21:48.444Z,11.70
2022-10-15T17:24:19.509Z,18.30
2022-10-15T17:26:49.947Z,16.60
2022-10-15T17:29:23.098Z,13.70
2022-10-15T17:34:21.808Z,12.50
2022-10-15T17:36:50.839Z,11.50
2022-10-15T17:39:30.486Z,13.20
2022-10-15T17:41:59.080Z,13.00
2022-10-15T17:44:27.716Z,12.60
2022-10-15T17:46:55.910Z,13.50
2022-10-15T17:49:30.879Z,14.70
2022-10-15T17:51:59.981Z,14.80
2022-10-15T17:54:27.955Z,16.30
2022-10-15T17:56:57.837Z,13.90
2022-10-15T17:59:26.128Z,12.00
2022-10-15T18:01:59.154Z,11.10
2022-10-15T18:04:33.427Z,11.10
2022-10-15T18:07:01.408Z,8.00
2022-10-15T18:09:29.829Z,11.20
2022-10-15T18:12:00.800Z,9.80
2022-10-15T18:14:30.363Z,9.30
2022-10-15T18:17:01.534Z,8.20
2022-10-15T18:19:31.128Z,7.50
2022-10-15T18:22:01.139Z,7.00
2022-10-15T18:24:29.400Z,9.00
2022-10-15T18:26:59.198Z,10.60
2022-10-15T18:29:28.881Z,7.90
2022-10-15T18:31:58.170Z,9.20
2022-10-15T18:34:28.985Z,9.40
2022-10-15T18:36:57.916Z,9.40
2022-10-15T18:39:27.936Z,15.60
2022-10-15T18:41:56.675Z,22.20
2022-10-15T18:44:29.055Z,24.90
2022-10-15T18:46:58.295Z,20.50
2022-10-15T18:49:26.173Z,22.40
2022-10-15T18:51:56.502Z,20.30
2022-10-15T18:54:24.735Z,20.50
2022-10-15T18:56:55.889Z,20.00
2022-10-15T18:59:32.605Z,18.60
2022-10-15T19:02:08.244Z,20.30
2022-10-15T19:04:38.003Z,22.20
2022-10-15T19:07:08.682Z,21.50
2022-10-15T19:09:41.395Z,21.20
2022-10-15T19:12:09.661Z,20.40
2022-10-15T19:14:38.117Z,20.60
2022-10-15T19:17:08.447Z,22.00
2022-10-15T19:19:36.689Z,24.00
2022-10-15T19:22:08.987Z,25.30
2022-10-15T19:24:39.314Z,24.10
2022-10-15T19:27:07.405Z,25.40
2022-10-15T19:29:35.458Z,24.30
2022-10-15T19:32:04.741Z,24.50
2022-10-15T19:34:35.652Z,25.10
2022-10-15T19:37:06.649Z,27.10
2022-10-15T19:39:37.539Z,25.30
2022-10-15T19:42:06.792Z,27.60
2022-10-15T19:44:34.600Z,28.90
2022-10-15T19:47:02.414Z,29.10
2022-10-15T19:49:30.619Z,29.10
2022-10-15T19:51:58.997Z,30.70
2022-10-15T19:54:28.020Z,29.70
2022-10-15T19:56:56.343Z,28.60
2022-10-15T19:59:26.831Z,30.50
2022-10-15T20:01:57.136Z,30.60
2022-10-15T20:04:26.096Z,33.40
2022-10-15T20:06:55.974Z,34.00
2022-10-15T20:09:24.369Z,33.60
2022-10-15T20:11:52.640Z,31.80
2022-10-15T20:14:26.308Z,35.00
2022-10-15T20:19:25.608Z,32.20
2022-10-15T20:21:54.602Z,33.10
2022-10-15T20:24:22.596Z,33.40
2022-10-15T20:26:52.213Z,30.20
2022-10-15T20:29:19.977Z,29.70
2022-10-15T20:31:51.951Z,32.90
2022-10-15T20:34:20.495Z,32.10
2022-10-15T20:36:53.328Z,29.60
2022-10-15T20:39:21.970Z,31.10
2022-10-15T20:41:49.812Z,30.40
2022-10-15T20:44:18.017Z,30.00
2022-10-15T20:46:53.646Z,29.60
2022-10-15T20:49:48.359Z,30.10
2022-10-15T20:52:16.789Z,32.10
2022-10-15T20:54:45.742Z,30.60
2022-10-15T20:57:14.182Z,28.30
2022-10-15T20:59:42.158Z,28.50
2022-10-15T21:02:12.585Z,26.30
2022-10-15T21:05:00.878Z,30.70
2022-10-15T21:07:31.083Z,26.30
2022-10-15T21:09:59.407Z,29.00
2022-10-15T21:12:27.607Z,27.70
2022-10-15T21:14:55.800Z,29.60
2022-10-15T21:17:24.348Z,27.40
2022-10-15T21:19:54.153Z,27.40
2022-10-15T21:22:27.187Z,29.80
2022-10-15T21:24:57.301Z,31.30
2022-10-15T21:27:25.232Z,29.20
2022-10-15T21:29:53.346Z,31.00
2022-10-15T21:32:21.073Z,30.60
2022-10-15T21:34:48.937Z,29.50
2022-10-15T21:37:17.320Z,36.20
2022-10-15T21:39:45.751Z,31.20
2022-10-15T21:42:14.023Z,30.10
2022-10-15T21:44:41.810Z,30.50
2022-10-15T21:47:12.909Z,28.50
2022-10-15T21:49:45.718Z,28.20
2022-10-15T21:52:14.203Z,28.20
2022-10-15T21:54:42.125Z,29.60
2022-10-15T21:57:09.895Z,27.40
2022-10-15T21:59:38.338Z,30.60
2022-10-15T22:02:07.276Z,27.00
2022-10-15T22:04:35.841Z,27.30
2022-10-15T22:07:06.650Z,27.70
2022-10-15T22:09:36.864Z,27.60
2022-10-15T22:12:05.557Z,25.30
2022-10-15T22:14:35.154Z,26.40
2022-10-15T22:17:11.986Z,26.70
2022-10-15T22:19:40.261Z,25.80
2022-10-15T22:22:09.041Z,24.90
2022-10-15T22:24:38.439Z,25.50
2022-10-15T22:27:08.341Z,24.40
2022-10-15T22:29:37.421Z,24.20
2022-10-15T22:32:05.929Z,23.50
2022-10-15T22:34:34.428Z,22.50
2022-10-15T22:37:02.594Z,24.40
2022-10-15T22:39:31.089Z,25.00
2022-10-15T22:42:00.207Z,28.70
2022-10-15T22:44:28.219Z,26.10
2022-10-15T22:46:55.951Z,26.80
2022-10-15T22:49:26.207Z,25.60
2022-10-15T22:51:56.703Z,25.20
2022-10-15T22:54:26.764Z,24.40
2022-10-15T22:56:54.941Z,24.60
2022-10-15T22:59:24.310Z,23.60
2022-10-15T23:01:52.740Z,24.80
2022-10-15T23:04:21.572Z,23.00
2022-10-15T23:06:53.068Z,25.30
2022-10-15T23:09:22.031Z,26.70
2022-10-15T23:11:54.786Z,26.50
2022-10-15T23:14:22.877Z,26.10
2022-10-15T23:16:51.256Z,26.80
2022-10-15T23:19:21.709Z,25.70
2022-10-15T23:21:57.717Z,24.00
2022-10-15T23:24:31.958Z,23.40
2022-10-15T23:27:00.848Z,23.20
2022-10-15T23:29:28.805Z,23.60
2022-10-15T23:32:02.365Z,21.90
2022-10-15T23:34:33.840Z,22.10
2022-10-15T23:37:03.324Z,22.00
2022-10-15T23:39:33.109Z,21.10
2022-10-15T23:42:00.966Z,22.50
2022-10-15T23:44:31.169Z,21.10
2022-10-15T23:46:59.409Z,20.90
2022-10-15T23:49:28.290Z,20.40
2022-10-15T23:51:56.079Z,21.50
2022-10-15T23:54:23.890Z,19.20
2022-10-15T23:56:53.664Z,19.80
2022-10-15T23:59:22.708Z,19.30
